Time;durP1;ratioP1;P1;durP2;ratioP2;P2;SDS_P1;SDS_P2;PMS_P1;PMS_P2;Temp;Humidity;BMP_temperature;BMP_pressure;BME280_temperature;BME280_humidity;BME280_pressure;Samples;Min_cycle;Max_cycle;Signal;HPM_P1;HPM_P2
2021/12/05 00:23:51;;;;;;;;;;;;;;;9.32;100.00;99573.53;5091130;28;19931;-60
2021/12/05 00:26:19;;;;;;;;;;;;;;;9.21;100.00;99563.53;5093639;28;19973;-60
2021/12/05 00:29:11;;;;;;;;;;;;;;;9.30;100.00;99572.09;5092376;28;19916;-60
2021/12/05 00:31:50;;;;;;;;;;;;;;;9.24;100.00;99573.81;5087734;28;20272;-61
2021/12/05 00:59:05;;;;;;;;;;;;;;;8.86;100.00;99586.16;5073259;28;19924;-57
2021/12/05 01:01:22;;;;;;;;;;;;;;;9.02;100.00;99602.66;5086795;28;19920;-58
2021/12/05 01:09:33;;;;;;;;;;;;;;;8.91;100.00;99606.03;5083332;28;20015;-60
2021/12/05 01:16:56;;;;;;;;;;;;;;;9.04;100.00;99590.78;5080770;28;20002;-58
2021/12/05 01:19:23;;;;;;;;;;;;;;;9.55;100.00;99587.28;5077722;28;19921;-61
2021/12/05 01:21:50;;;;;;;;;;;;;;;9.33;100.00;99587.66;5071683;28;20106;-59
2021/12/05 01:24:37;;;;;;;;;;;;;;;9.16;100.00;99590.06;5080668;28;20379;-60
2021/12/05 01:27:19;;;;;;;;;;;;;;;9.32;100.00;99591.38;5084764;28;20384;-60
2021/12/05 01:30:05;;;;;;;;;;;;;;;9.25;100.00;99594.09;5074446;28;19928;-59
2021/12/05 01:35:44;;;;;;;;;;;;;;;8.67;100.00;99609.22;5080510;28;20407;-59
2021/12/05 01:38:28;;;;;;;;;;;;;;;8.87;100.00;99584.31;5071593;28;20288;-60
2021/12/05 01:54:34;;;;;;;;;;;;;;;8.96;100.00;99593.69;5083569;28;20018;-60
2021/12/05 01:57:31;;;;;;;;;;;;;;;8.89;100.00;99576.91;5076149;28;20363;-60
2021/12/05 02:35:41;;;;;;;;;;;;;;;8.82;100.00;99592.16;5075355;28;20019;-61
2021/12/05 02:40:47;;;;;;;;;;;;;;;8.70;100.00;99586.69;5073708;28;20046;-60
2021/12/05 02:43:28;;;;;;;;;;;;;;;9.06;100.00;99587.88;5074115;28;20023;-60
2021/12/05 02:45:57;;;;;;;;;;;;;;;8.86;100.00;99577.34;5075493;28;19924;-60
2021/12/05 02:48:25;;;;;;;;;;;;;;;8.88;100.00;99588.63;5073700;28;19924;-61
2021/12/05 02:50:51;;;;;;;;;;;;;;;9.20;100.00;99593.91;5073694;28;20016;-60
2021/12/05 02:53:21;;;;;;;;;;;;;;;8.97;100.00;99584.66;5073461;28;20309;-60
2021/12/05 02:55:48;;;;;;;;;;;;;;;8.96;100.00;99592.88;5057200;28;20031;-60
2021/12/05 03:01:08;;;;;;;;;;;;;;;8.92;100.00;99597.81;5072793;28;19927;-58
2021/12/05 03:03:35;;;;;;;;;;;;;;;8.85;100.00;99597.03;5073622;28;19921;-60
2021/12/05 03:06:07;;;;;;;;;;;;;;;8.99;100.00;99592.44;5073366;28;19924;-60
2021/12/05 03:08:33;;;;;;;;;;;;;;;8.66;100.00;99602.28;5056723;28;19978;-60
2021/12/05 03:10:59;;;;;;;;;;;;;;;9.00;100.00;99591.41;5073329;28;19959;-60
2021/12/05 03:13:25;;;;;;;;;;;;;;;8.77;100.00;99597.31;5073046;28;19924;-60
2021/12/05 03:15:50;;;;;;;;;;;;;;;8.69;100.00;99607.16;5073234;28;19973;-60
2021/12/05 03:18:16;;;;;;;;;;;;;;;8.84;100.00;99584.75;5090221;28;19920;-60
2021/12/05 03:20:41;;;;;;;;;;;;;;;9.37;100.00;99588.06;5073064;28;19921;-58
2021/12/05 03:23:07;;;;;;;;;;;;;;;8.98;100.00;99586.28;5074189;28;20084;-59
2021/12/05 03:25:33;;;;;;;;;;;;;;;9.04;100.00;99580.09;5073030;28;19920;-61
2021/12/05 03:28:01;;;;;;;;;;;;;;;8.86;100.00;99586.16;5073143;28;19925;-60
2021/12/05 03:30:27;;;;;;;;;;;;;;;8.87;100.00;99582.44;5056208;28;20338;-61
2021/12/05 03:32:53;;;;;;;;;;;;;;;8.78;100.00;99574.94;5073118;28;19921;-60
2021/12/05 03:35:21;;;;;;;;;;;;;;;9.31;100.00;99585.22;5074318;28;19974;-59
2021/12/05 03:37:47;;;;;;;;;;;;;;;8.96;100.00;99576.88;5072670;28;20283;-61
2021/12/05 03:40:14;;;;;;;;;;;;;;;9.20;100.00;99574.44;5074095;28;20020;-60
2021/12/05 03:42:41;;;;;;;;;;;;;;;9.15;100.00;99583.09;5072800;28;19972;-60
2021/12/05 03:45:10;;;;;;;;;;;;;;;8.85;100.00;99589.84;5072849;28;19983;-60
2021/12/05 03:47:36;;;;;;;;;;;;;;;9.07;100.00;99589.50;5072362;28;20021;-60
2021/12/05 03:50:05;;;;;;;;;;;;;;;9.22;100.00;99583.03;5056808;28;20079;-60
2021/12/05 03:52:32;;;;;;;;;;;;;;;8.66;100.00;99591.59;5072364;28;19969;-60
2021/12/05 03:54:58;;;;;;;;;;;;;;;9.11;100.00;99580.06;5089527;28;19920;-59
2021/12/05 03:57:24;;;;;;;;;;;;;;;8.96;100.00;99587.53;5072702;28;20062;-61
2021/12/05 03:59:51;;;;;;;;;;;;;;;8.95;100.00;99581.38;5072444;28;19920;-61
2021/12/05 04:02:16;;;;;;;;;;;;;;;8.91;100.00;99580.19;5072768;28;19924;-62
2021/12/05 04:04:42;;;;;;;;;;;;;;;8.86;100.00;99582.69;5073189;28;19966;-61
2021/12/05 04:07:12;;;;;;;;;;;;;;;8.93;100.00;99586.13;5073063;28;20391;-61
2021/12/05 04:09:39;;;;;;;;;;;;;;;9.55;100.00;99574.75;5072362;28;19925;-60
2021/12/05 04:12:06;;;;;;;;;;;;;;;8.95;100.00;99581.38;5071925;28;20346;-60
2021/12/05 04:14:45;;;;;;;;;;;;;;;9.20;100.00;99583.25;5072160;28;19920;-60
2021/12/05 04:17:14;;;;;;;;;;;;;;;9.04;100.00;99590.78;5071551;28;20011;-60
2021/12/05 04:19:40;;;;;;;;;;;;;;;8.79;100.00;99588.03;5087445;28;20411;-60
2021/12/05 04:22:07;;;;;;;;;;;;;;;9.20;100.00;99590.44;5091863;28;19978;-60
2021/12/05 04:24:33;;;;;;;;;;;;;;;9.43;100.00;99592.50;5091643;28;20307;-59
2021/12/05 04:26:59;;;;;;;;;;;;;;;9.56;100.00;99584.41;5091603;28;20473;-60
2021/12/05 04:29:24;;;;;;;;;;;;;;;9.51;100.00;99591.41;5091694;28;20015;-61
2021/12/05 04:31:51;;;;;;;;;;;;;;;9.37;100.00;99590.72;5091396;28;19931;-60
2021/12/05 04:34:16;;;;;;;;;;;;;;;9.11;100.00;99587.22;5091717;28;19945;-61
2021/12/05 04:36:42;;;;;;;;;;;;;;;9.22;100.00;99594.50;5092458;28;19924;-60
2021/12/05 04:39:08;;;;;;;;;;;;;;;8.81;100.00;99601.19;5091391;28;19924;-60
2021/12/05 04:41:34;;;;;;;;;;;;;;;9.00;100.00;99592.25;5091511;28;19928;-60
2021/12/05 04:44:01;;;;;;;;;;;;;;;9.26;100.00;99593.06;5091510;28;19920;-60
2021/12/05 04:46:28;;;;;;;;;;;;;;;9.06;100.00;99595.06;5091772;28;19959;-60
2021/12/05 04:48:54;;;;;;;;;;;;;;;9.06;100.00;99593.19;5091612;28;20010;-61
2021/12/05 04:51:22;;;;;;;;;;;;;;;9.02;100.00;99592.00;5091368;28;19926;-60
2021/12/05 04:53:50;;;;;;;;;;;;;;;9.40;100.00;99588.44;5074451;28;20364;-60
2021/12/05 04:56:18;;;;;;;;;;;;;;;9.07;100.00;99594.03;5092311;28;19928;-60
2021/12/05 04:58:43;;;;;;;;;;;;;;;8.92;100.00;99589.00;5091459;28;19943;-60
2021/12/05 05:01:09;;;;;;;;;;;;;;;9.11;100.00;99596.06;5091151;28;19920;-61
2021/12/05 05:03:34;;;;;;;;;;;;;;;9.08;100.00;99590.34;5092211;28;19924;-60
2021/12/05 05:06:06;;;;;;;;;;;;;;;8.78;100.00;99596.28;5092383;28;19974;-60
2021/12/05 05:08:31;;;;;;;;;;;;;;;8.87;100.00;99592.31;5092335;28;19920;-60
2021/12/05 05:11:03;;;;;;;;;;;;;;;9.30;100.00;99598.78;5090783;28;20038;-60
2021/12/05 05:13:30;;;;;;;;;;;;;;;9.39;100.00;99602.81;5090947;28;20256;-60
2021/12/05 05:15:56;;;;;;;;;;;;;;;9.00;100.00;99610.91;5092208;28;20018;-60
2021/12/05 05:18:23;;;;;;;;;;;;;;;9.25;100.00;99606.63;5091508;28;20394;-60
2021/12/05 05:24:17;;;;;;;;;;;;;;;9.26;100.00;99621.59;5083305;28;19931;-60
2021/12/05 05:49:59;;;;;;;;;;;;;;;9.36;100.00;99627.28;5095664;28;19928;-60
2021/12/05 05:52:25;;;;;;;;;;;;;;;9.53;100.00;99629.38;5095850;28;19916;-63
2021/12/05 05:54:52;;;;;;;;;;;;;;;9.66;100.00;99641.78;5095020;28;19997;-60
2021/12/05 05:57:31;;;;;;;;;;;;;;;9.60;100.00;99632.84;5077807;28;19931;-60
2021/12/05 06:00:11;;;;;;;;;;;;;;;9.81;100.00;99642.28;5077274;28;19973;-61
2021/12/05 06:05:26;;;;;;;;;;;;;;;9.53;100.00;99646.22;5094629;28;19951;-61
2021/12/05 06:07:51;;;;;;;;;;;;;;;9.82;100.00;99654.59;5093692;28;19920;-61
2021/12/05 06:10:21;;;;;;;;;;;;;;;9.70;100.00;99648.34;5095362;28;19928;-60
2021/12/05 06:12:47;;;;;;;;;;;;;;;9.65;100.00;99664.19;5095281;28;19999;-60
2021/12/05 06:15:13;;;;;;;;;;;;;;;9.62;100.00;99652.13;5095613;28;20413;-59
2021/12/05 06:17:39;;;;;;;;;;;;;;;9.78;100.00;99669.44;5095753;28;19919;-60
2021/12/05 06:20:06;;;;;;;;;;;;;;;9.29;100.00;99656.66;5094035;28;20011;-60
2021/12/05 06:22:32;;;;;;;;;;;;;;;9.84;100.00;99667.75;5094017;28;19956;-59
2021/12/05 06:24:58;;;;;;;;;;;;;;;9.71;100.00;99668.69;5094955;28;20372;-60
2021/12/05 06:27:23;;;;;;;;;;;;;;;9.37;100.00;99668.09;5095252;28;20392;-61
2021/12/05 06:29:56;;;;;;;;;;;;;;;9.42;100.00;99665.59;5095338;28;19966;-60
2021/12/05 06:38:06;;;;;;;;;;;;;;;9.87;100.00;99678.78;5092925;28;19946;-60
2021/12/05 06:46:06;;;;;;;;;;;;;;;9.77;100.00;99699.84;5093081;28;20015;-60
2021/12/05 06:48:32;;;;;;;;;;;;;;;9.88;100.00;99709.00;5094553;28;19969;-60
2021/12/05 06:50:57;;;;;;;;;;;;;;;9.73;100.00;99707.44;5093074;28;20356;-58
2021/12/05 06:53:23;;;;;;;;;;;;;;;10.13;100.00;99716.16;5094334;28;19970;-60
2021/12/05 06:55:48;;;;;;;;;;;;;;;9.96;100.00;99718.59;5076291;28;19924;-60
2021/12/05 06:58:13;;;;;;;;;;;;;;;10.04;100.00;99720.97;5094399;28;19924;-60
2021/12/05 07:00:39;;;;;;;;;;;;;;;9.84;100.00;99721.94;5080399;28;20241;-61
2021/12/05 07:03:07;;;;;;;;;;;;;;;9.56;100.00;99723.19;5080229;28;19935;-60
2021/12/05 07:05:52;;;;;;;;;;;;;;;9.76;100.00;99724.91;5094494;28;19928;-61
2021/12/05 07:08:18;;;;;;;;;;;;;;;9.86;100.00;99727.09;5073710;28;20415;-61
2021/12/05 07:10:53;;;;;;;;;;;;;;;9.82;100.00;99734.72;5085876;28;19920;-58
2021/12/05 07:42:25;;;;;;;;;;;;;;;9.71;100.00;99759.44;5089883;28;19924;-60
2021/12/05 07:44:57;;;;;;;;;;;;;;;9.26;100.00;99754.97;5082205;28;19927;-60
2021/12/05 07:47:27;;;;;;;;;;;;;;;9.43;100.00;99753.47;5082851;28;19921;-60
2021/12/05 07:49:54;;;;;;;;;;;;;;;9.37;100.00;99756.16;5081787;28;19928;-61
2021/12/05 07:52:23;;;;;;;;;;;;;;;9.08;100.00;99753.03;5081325;28;19916;-61
2021/12/05 07:54:56;;;;;;;;;;;;;;;9.65;100.00;99752.28;5081015;28;19932;-60
2021/12/05 07:57:31;;;;;;;;;;;;;;;9.82;100.00;99761.41;5082908;28;19920;-59
2021/12/05 08:16:32;;;;;;;;;;;;;;;10.38;100.00;99784.78;5081719;28;20060;-59
2021/12/05 08:18:57;;;;;;;;;;;;;;;10.14;100.00;99784.59;5081082;28;20038;-60
2021/12/05 08:21:23;;;;;;;;;;;;;;;9.85;100.00;99790.34;5082282;28;20014;-58
2021/12/05 08:23:49;;;;;;;;;;;;;;;9.49;100.00;99791.81;5080035;28;19920;-60
2021/12/05 08:26:22;;;;;;;;;;;;;;;9.99;100.00;99798.28;5083054;28;19924;-59
2021/12/05 08:29:02;;;;;;;;;;;;;;;9.78;100.00;99792.25;5082446;28;19928;-60
2021/12/05 09:31:22;;;;;;;;;;;;;;;10.58;100.00;99896.91;5094876;28;19924;-61
2021/12/05 10:14:57;;;;;;;;;;;;;;;11.12;100.00;99939.25;5095662;28;19924;-61
2021/12/05 10:36:18;;;;;;;;;;;;;;;11.00;100.00;99981.94;5094477;28;19967;-58
2021/12/05 10:38:50;;;;;;;;;;;;;;;11.08;100.00;99983.53;5092077;28;19952;-62
2021/12/05 10:44:01;;;;;;;;;;;;;;;11.27;100.00;99979.81;5093762;28;20050;-61
2021/12/05 10:46:29;;;;;;;;;;;;;;;11.00;100.00;99979.28;5093793;28;19927;-61
2021/12/05 10:48:54;;;;;;;;;;;;;;;10.99;100.00;99985.66;5093497;28;19955;-61
2021/12/05 10:51:25;;;;;;;;;;;;;;;10.76;100.00;99974.50;5094392;28;20376;-62
2021/12/05 10:53:51;;;;;;;;;;;;;;;11.04;100.00;99977.78;5094915;28;19959;-61
2021/12/05 10:56:17;;;;;;;;;;;;;;;11.07;100.00;99973.84;5088777;28;19924;-61
2021/12/05 10:58:42;;;;;;;;;;;;;;;10.75;100.00;99972.88;5075670;28;19943;-62
2021/12/05 11:01:11;;;;;;;;;;;;;;;10.89;100.00;99978.94;5079328;28;19931;-61
2021/12/05 11:03:37;;;;;;;;;;;;;;;10.75;100.00;99978.22;5083047;28;19982;-61
2021/12/05 11:06:16;;;;;;;;;;;;;;;10.73;100.00;99982.97;5082148;28;19920;-59
2021/12/05 11:08:41;;;;;;;;;;;;;;;11.30;100.00;99983.94;5084099;28;19925;-61
2021/12/05 11:11:14;;;;;;;;;;;;;;;11.41;100.00;99990.41;5064453;28;19928;-60
2021/12/05 11:13:43;;;;;;;;;;;;;;;12.02;100.00;99979.88;5083574;28;19927;-61
2021/12/05 11:16:27;;;;;;;;;;;;;;;11.56;100.00;99992.72;5083901;28;20012;-62
2021/12/05 11:18:52;;;;;;;;;;;;;;;11.31;100.00;100015.84;5081600;28;19920;-59
2021/12/05 11:21:29;;;;;;;;;;;;;;;11.10;100.00;100006.34;5083837;28;19943;-61
2021/12/05 11:24:03;;;;;;;;;;;;;;;11.27;100.00;100011.16;5083995;28;20360;-60
2021/12/05 11:26:30;;;;;;;;;;;;;;;11.14;100.00;100014.75;5090966;28;20324;-60
2021/12/05 11:28:56;;;;;;;;;;;;;;;11.11;100.00;100013.34;5093325;28;20059;-61
2021/12/05 11:31:26;;;;;;;;;;;;;;;11.25;100.00;100024.72;5085250;28;20073;-50
2021/12/05 11:33:54;;;;;;;;;;;;;;;11.31;100.00;100026.56;5073709;28;20402;-53
2021/12/05 11:36:27;;;;;;;;;;;;;;;11.21;100.00;100020.06;5074751;28;19925;-53
2021/12/05 11:38:53;;;;;;;;;;;;;;;10.87;100.00;100023.81;5073508;28;19968;-55
2021/12/05 11:41:20;;;;;;;;;;;;;;;11.12;100.00;100024.88;5075325;28;19920;-53
2021/12/05 11:43:47;;;;;;;;;;;;;;;11.39;100.00;100038.00;5073591;28;20321;-53
2021/12/05 11:46:13;;;;;;;;;;;;;;;11.30;100.00;100032.94;5073257;28;19970;-51
2021/12/05 11:48:44;;;;;;;;;;;;;;;11.29;100.00;100038.50;5075008;28;19924;-51
2021/12/05 11:51:36;;;;;;;;;;;;;;;11.19;100.00;100041.69;5074248;28;20388;-53
2021/12/05 11:54:20;;;;;;;;;;;;;;;11.09;100.00;100049.41;5073681;28;19921;-48
2021/12/05 11:57:05;;;;;;;;;;;;;;;11.55;100.00;100053.50;5074505;28;20019;-55
2021/12/05 11:59:30;;;;;;;;;;;;;;;11.26;100.00;100046.97;5074251;28;20011;-50
2021/12/05 12:02:28;;;;;;;;;;;;;;;11.45;100.00;100037.13;5073412;28;20404;-49
2021/12/05 12:04:58;;;;;;;;;;;;;;;11.27;100.00;100044.06;5061825;28;19968;-58
2021/12/05 12:07:23;;;;;;;;;;;;;;;11.00;100.00;100046.16;5072845;28;19921;-54
2021/12/05 12:09:50;;;;;;;;;;;;;;;11.07;100.00;100052.28;5074056;28;20398;-52
2021/12/05 12:12:15;;;;;;;;;;;;;;;11.41;100.00;100058.16;5074936;28;19926;-52
2021/12/05 12:14:41;;;;;;;;;;;;;;;11.62;100.00;100067.66;5074065;28;19921;-51
2021/12/05 12:17:12;;;;;;;;;;;;;;;11.73;100.00;100067.94;5072779;28;19955;-51
2021/12/05 12:19:38;;;;;;;;;;;;;;;11.82;100.00;100063.13;5075181;28;19939;-53
2021/12/05 12:22:04;;;;;;;;;;;;;;;12.02;100.00;100060.25;5074172;28;19920;-53
2021/12/05 12:24:30;;;;;;;;;;;;;;;11.39;100.00;100062.91;5074115;28;20007;-54
2021/12/05 12:26:55;;;;;;;;;;;;;;;11.68;100.00;100073.97;5073855;28;20029;-52
2021/12/05 12:29:21;;;;;;;;;;;;;;;11.59;100.00;100067.25;5072912;28;20027;-53
2021/12/05 12:31:49;;;;;;;;;;;;;;;11.64;100.00;100066.59;5073796;28;19924;-55
2021/12/05 12:34:17;;;;;;;;;;;;;;;11.83;100.00;100072.78;5072945;28;19927;-50
2021/12/05 12:36:45;;;;;;;;;;;;;;;12.11;100.00;100072.31;5073958;28;19927;-51
2021/12/05 12:39:17;;;;;;;;;;;;;;;12.09;100.00;100071.72;5072910;28;19970;-54
2021/12/05 12:41:59;;;;;;;;;;;;;;;12.38;100.00;100073.84;5072837;28;19924;-53
2021/12/05 12:44:25;;;;;;;;;;;;;;;12.18;100.00;100082.94;5074160;28;19920;-54
2021/12/05 12:46:55;;;;;;;;;;;;;;;12.26;100.00;100079.16;5075157;28;19973;-52
2021/12/05 12:49:20;;;;;;;;;;;;;;;12.24;100.00;100089.28;5056758;28;19921;-49
2021/12/05 12:51:57;;;;;;;;;;;;;;;12.21;100.00;100093.22;5072770;28;19927;-51
2021/12/05 12:54:25;;;;;;;;;;;;;;;12.07;100.00;100097.09;5056509;28;20003;-52
2021/12/05 12:57:12;;;;;;;;;;;;;;;11.97;100.00;100100.25;5073523;28;19921;-52
2021/12/05 12:59:42;;;;;;;;;;;;;;;11.94;100.00;100098.84;5073864;28;20015;-52
2021/12/05 13:02:27;;;;;;;;;;;;;;;12.48;100.00;100093.72;5073939;28;19927;-51
2021/12/05 13:10:23;;;;;;;;;;;;;;;11.97;100.00;100116.31;5072456;28;19921;-52
2021/12/05 13:12:57;;;;;;;;;;;;;;;12.15;100.00;100113.69;5073648;28;20361;-53
2021/12/05 13:15:35;;;;;;;;;;;;;;;11.81;100.00;100123.09;5074237;28;19920;-55
2021/12/05 13:18:05;;;;;;;;;;;;;;;12.61;100.00;100116.03;5072278;28;19929;-53
2021/12/05 13:20:30;;;;;;;;;;;;;;;11.88;100.00;100129.22;5073320;28;20379;-54
2021/12/05 13:23:16;;;;;;;;;;;;;;;11.81;100.00;100126.59;5073802;28;19918;-53
2021/12/05 13:25:56;;;;;;;;;;;;;;;11.86;100.00;100132.13;5073914;28;19924;-53
2021/12/05 13:28:45;;;;;;;;;;;;;;;11.87;100.00;100132.91;5073270;28;20016;-54
2021/12/05 13:31:28;;;;;;;;;;;;;;;12.19;100.00;100147.03;5063223;28;19920;-54
2021/12/05 13:34:13;;;;;;;;;;;;;;;12.18;100.00;100150.75;5074178;28;20361;-54
2021/12/05 13:36:38;;;;;;;;;;;;;;;12.03;100.00;100153.81;5071854;28;19925;-51
2021/12/05 13:39:23;;;;;;;;;;;;;;;12.07;100.00;100159.56;5071851;28;20391;-56
2021/12/05 13:41:58;;;;;;;;;;;;;;;11.94;100.00;100149.75;5073855;28;19952;-53
2021/12/05 13:44:24;;;;;;;;;;;;;;;12.39;100.00;100147.88;5074240;28;20015;-54
2021/12/05 13:46:51;;;;;;;;;;;;;;;12.80;100.00;100146.34;5077016;28;19982;-53
2021/12/05 13:49:31;;;;;;;;;;;;;;;12.83;100.00;100155.78;5076936;28;19929;-55
2021/12/05 13:52:16;;;;;;;;;;;;;;;12.55;100.00;100157.16;5076207;28;19921;-50
2021/12/05 13:54:42;;;;;;;;;;;;;;;12.30;100.00;100161.56;5076746;28;19932;-49
2021/12/05 13:57:08;;;;;;;;;;;;;;;11.85;100.00;100167.97;5076470;28;19924;-53
2021/12/05 13:59:34;;;;;;;;;;;;;;;12.23;100.00;100162.72;5077181;28;19964;-53
2021/12/05 14:01:59;;;;;;;;;;;;;;;11.88;100.00;100175.56;5077253;28;19971;-54
2021/12/05 14:04:27;;;;;;;;;;;;;;;11.94;100.00;100173.03;5077028;28;19931;-54
2021/12/05 14:07:04;;;;;;;;;;;;;;;11.89;100.00;100182.56;5077100;28;20249;-54
2021/12/05 14:09:48;;;;;;;;;;;;;;;12.03;100.00;100191.34;5076605;28;19925;-53
2021/12/05 14:12:14;;;;;;;;;;;;;;;12.06;100.00;100195.44;5076439;28;19985;-50
2021/12/05 14:15:03;;;;;;;;;;;;;;;12.53;100.00;100202.19;5076519;28;20368;-51
2021/12/05 14:17:28;;;;;;;;;;;;;;;12.15;100.00;100201.34;5073236;28;19920;-53
2021/12/05 14:19:57;;;;;;;;;;;;;;;11.75;100.00;100215.88;5076900;28;20384;-54
2021/12/05 14:22:24;;;;;;;;;;;;;;;11.87;100.00;100219.47;5076146;28;19943;-54
2021/12/05 14:24:51;;;;;;;;;;;;;;;11.68;100.00;100223.97;5076732;28;19924;-54
2021/12/05 14:27:18;;;;;;;;;;;;;;;11.60;100.00;100232.25;5076026;28;20432;-55
2021/12/05 14:29:45;;;;;;;;;;;;;;;11.68;100.00;100239.22;5076290;28;19950;-47
2021/12/05 14:32:20;;;;;;;;;;;;;;;12.15;100.00;100245.03;5074861;28;19938;-50
2021/12/05 14:34:46;;;;;;;;;;;;;;;12.36;100.00;100251.03;5075472;28;19920;-50
2021/12/05 14:37:14;;;;;;;;;;;;;;;11.99;100.00;100259.78;5075994;28;20406;-50
2021/12/05 14:39:59;;;;;;;;;;;;;;;11.85;100.00;100263.59;5075566;28;20376;-53
2021/12/05 14:42:26;;;;;;;;;;;;;;;11.76;100.00;100261.19;5076603;28;19966;-51
2021/12/05 14:44:54;;;;;;;;;;;;;;;12.14;100.00;100272.88;5075438;28;20381;-50
2021/12/05 14:47:21;;;;;;;;;;;;;;;11.83;100.00;100276.41;5074518;28;20394;-48
2021/12/05 14:49:49;;;;;;;;;;;;;;;11.86;100.00;100281.31;5075604;28;19920;-53
2021/12/05 14:52:17;;;;;;;;;;;;;;;11.81;100.00;100284.66;5057765;28;19920;-52
2021/12/05 14:54:42;;;;;;;;;;;;;;;11.98;100.00;100289.47;5075735;28;19920;-50
2021/12/05 14:57:28;;;;;;;;;;;;;;;12.04;100.00;100296.69;5074689;28;19924;-51
2021/12/05 15:00:06;;;;;;;;;;;;;;;11.83;100.00;100290.63;5075188;28;19921;-51
2021/12/05 15:02:32;;;;;;;;;;;;;;;11.93;100.00;100300.88;5075446;28;19987;-49
2021/12/05 15:04:57;;;;;;;;;;;;;;;11.51;100.00;100309.34;5074302;28;20404;-50
2021/12/05 15:07:23;;;;;;;;;;;;;;;11.70;100.00;100314.81;5075259;28;19921;-51
2021/12/05 15:09:50;;;;;;;;;;;;;;;12.11;100.00;100323.41;5075317;28;19993;-50
2021/12/05 15:12:19;;;;;;;;;;;;;;;12.21;100.00;100330.97;5074668;28;19916;-54
2021/12/05 15:14:47;;;;;;;;;;;;;;;12.12;100.00;100335.81;5075352;28;19927;-51
2021/12/05 15:17:16;;;;;;;;;;;;;;;12.23;100.00;100340.44;5074092;28;20089;-55
2021/12/05 15:19:44;;;;;;;;;;;;;;;12.36;100.00;100347.56;5074293;28;19967;-54
2021/12/05 15:22:12;;;;;;;;;;;;;;;12.40;100.00;100343.38;5075152;28;19920;-54
2021/12/05 15:24:37;;;;;;;;;;;;;;;12.58;100.00;100345.31;5075614;28;19924;-52
2021/12/05 15:27:04;;;;;;;;;;;;;;;12.51;100.00;100351.78;5073636;28;20410;-51
2021/12/05 15:29:30;;;;;;;;;;;;;;;12.57;100.00;100359.75;5075147;28;20004;-51
2021/12/05 15:31:56;;;;;;;;;;;;;;;12.54;100.00;100356.69;5074864;28;19920;-56
2021/12/05 15:34:21;;;;;;;;;;;;;;;12.61;100.00;100365.50;5074395;28;19971;-52
2021/12/05 15:36:47;;;;;;;;;;;;;;;12.54;100.00;100368.22;5074143;28;20023;-56
2021/12/05 15:39:19;;;;;;;;;;;;;;;12.56;100.00;100368.03;5057345;28;19966;-54
2021/12/05 15:41:46;;;;;;;;;;;;;;;12.54;100.00;100375.47;5074947;28;20360;-55
2021/12/05 15:44:21;;;;;;;;;;;;;;;12.50;100.00;100376.94;5074624;28;19921;-51
2021/12/05 15:46:47;;;;;;;;;;;;;;;12.54;100.00;100381.63;5073507;28;19925;-52
2021/12/05 15:49:12;;;;;;;;;;;;;;;12.53;100.00;100385.38;5073563;28;19928;-52
2021/12/05 15:51:37;;;;;;;;;;;;;;;12.56;100.00;100392.16;5074731;28;20374;-53
2021/12/05 15:54:03;;;;;;;;;;;;;;;12.51;100.00;100394.69;5074962;28;19925;-52
2021/12/05 15:56:28;;;;;;;;;;;;;;;12.57;100.00;100393.81;5074401;28;20066;-54
2021/12/05 15:59:02;;;;;;;;;;;;;;;12.51;100.00;100390.13;5073305;28;19947;-56
2021/12/05 16:01:28;;;;;;;;;;;;;;;12.48;100.00;100404.81;5074213;28;20376;-55
2021/12/05 16:03:59;;;;;;;;;;;;;;;12.56;100.00;100403.69;5072973;28;19921;-52
2021/12/05 16:06:32;;;;;;;;;;;;;;;12.48;100.00;100412.88;5074394;28;19982;-51
2021/12/05 16:08:57;;;;;;;;;;;;;;;12.50;100.00;100409.13;5072724;28;19931;-52
2021/12/05 16:11:23;;;;;;;;;;;;;;;12.57;100.00;100418.78;5072834;28;19924;-49
2021/12/05 16:13:50;;;;;;;;;;;;;;;12.53;100.00;100435.53;5073998;28;20261;-51
2021/12/05 16:16:23;;;;;;;;;;;;;;;12.58;100.00;100441.03;5074128;28;19924;-57
2021/12/05 16:18:50;;;;;;;;;;;;;;;12.54;100.00;100445.22;5073875;28;20285;-52
2021/12/05 16:21:15;;;;;;;;;;;;;;;12.55;100.00;100444.16;5074187;28;19989;-52
2021/12/05 16:23:40;;;;;;;;;;;;;;;12.48;100.00;100444.22;5073809;28;19924;-51
2021/12/05 16:26:11;;;;;;;;;;;;;;;12.54;100.00;100453.25;5056168;28;19921;-51
2021/12/05 16:28:43;;;;;;;;;;;;;;;12.53;100.00;100459.66;5072396;28;19920;-53
2021/12/05 16:31:12;;;;;;;;;;;;;;;12.57;100.00;100458.19;5073137;28;19920;-54
2021/12/05 16:33:38;;;;;;;;;;;;;;;12.52;100.00;100471.44;5073806;28;19966;-55
2021/12/05 16:36:05;;;;;;;;;;;;;;;12.47;100.00;100464.03;5074327;28;19979;-55
2021/12/05 16:38:36;;;;;;;;;;;;;;;12.45;100.00;100464.22;5073539;28;19923;-55
2021/12/05 16:41:05;;;;;;;;;;;;;;;12.50;100.00;100466.28;5072808;28;21613;-51
2021/12/05 16:43:32;;;;;;;;;;;;;;;12.51;100.00;100472.47;5073728;28;19990;-51
2021/12/05 16:46:12;;;;;;;;;;;;;;;12.52;100.00;100466.06;5073744;28;20295;-50
2021/12/05 16:48:39;;;;;;;;;;;;;;;12.50;100.00;100474.31;5073176;28;19931;-50
2021/12/05 16:51:15;;;;;;;;;;;;;;;12.51;100.00;100485.88;5073607;28;19921;-55
2021/12/05 16:53:46;;;;;;;;;;;;;;;12.40;100.00;100490.88;5072718;28;19921;-52
2021/12/05 16:56:14;;;;;;;;;;;;;;;12.37;100.00;100491.31;5073504;28;19960;-51
2021/12/05 16:58:43;;;;;;;;;;;;;;;12.44;100.00;100493.97;5073479;28;19924;-52
2021/12/05 17:01:18;;;;;;;;;;;;;;;12.51;100.00;100499.28;5056416;28;19924;-49
2021/12/05 17:03:44;;;;;;;;;;;;;;;12.46;100.00;100503.44;5074104;28;19920;-53
2021/12/05 17:06:11;;;;;;;;;;;;;;;12.52;100.00;100506.28;5072717;28;19924;-51
2021/12/05 17:08:44;;;;;;;;;;;;;;;12.46;100.00;100508.81;5073681;28;19948;-55
2021/12/05 17:11:10;;;;;;;;;;;;;;;12.42;100.00;100517.50;5073285;28;19924;-53
2021/12/05 17:13:56;;;;;;;;;;;;;;;12.43;100.00;100522.63;5072485;28;20233;-49
2021/12/05 17:16:24;;;;;;;;;;;;;;;12.55;100.00;100535.38;5071738;28;20015;-54
2021/12/05 17:18:52;;;;;;;;;;;;;;;12.49;100.00;100534.34;5072327;28;20388;-52
2021/12/05 17:21:19;;;;;;;;;;;;;;;12.59;100.00;100548.13;5074917;28;19960;-54
2021/12/05 17:23:50;;;;;;;;;;;;;;;12.47;100.00;100547.16;5077768;28;19921;-50
2021/12/05 17:26:22;;;;;;;;;;;;;;;12.45;100.00;100549.25;5078220;28;19974;-54
2021/12/05 17:28:52;;;;;;;;;;;;;;;12.50;100.00;100546.72;5077497;28;19924;-55
2021/12/05 17:31:23;;;;;;;;;;;;;;;12.49;100.00;100558.50;5077197;28;20046;-51
2021/12/05 17:33:53;;;;;;;;;;;;;;;12.48;100.00;100556.84;5077679;28;19927;-54
2021/12/05 17:36:36;;;;;;;;;;;;;;;12.27;100.00;100566.06;5076652;28;19960;-54
2021/12/05 17:39:13;;;;;;;;;;;;;;;12.28;100.00;100567.69;5076773;28;19928;-53
2021/12/05 17:41:39;;;;;;;;;;;;;;;12.23;100.00;100579.06;5075630;28;19927;-54
2021/12/05 17:44:05;;;;;;;;;;;;;;;12.36;100.00;100583.53;5076707;28;19920;-53
2021/12/05 17:46:32;;;;;;;;;;;;;;;12.38;100.00;100589.50;5076710;28;19967;-50
2021/12/05 17:48:58;;;;;;;;;;;;;;;12.27;100.00;100598.22;5076962;28;19924;-52
2021/12/05 17:51:33;;;;;;;;;;;;;;;12.24;100.00;100601.34;5076663;28;19916;-50
2021/12/05 17:53:59;;;;;;;;;;;;;;;12.13;100.00;100598.25;5059156;28;19920;-56
2021/12/05 17:56:51;;;;;;;;;;;;;;;12.08;100.00;100606.13;5076640;28;20407;-56
2021/12/05 18:04:31;;;;;;;;;;;;;;;11.96;100.00;100613.97;5076304;28;19925;-51
2021/12/05 18:06:56;;;;;;;;;;;;;;;11.97;100.00;100620.97;5076799;28;20319;-52
2021/12/05 18:09:22;;;;;;;;;;;;;;;11.91;100.00;100622.63;5076508;28;19926;-54
2021/12/05 18:11:48;;;;;;;;;;;;;;;12.28;100.00;100615.97;5076367;28;19924;-57
2021/12/05 18:14:13;;;;;;;;;;;;;;;12.27;100.00;100614.31;5076658;28;19925;-55
2021/12/05 18:16:39;;;;;;;;;;;;;;;12.14;100.00;100624.03;5076519;28;20027;-54
2021/12/05 18:19:06;;;;;;;;;;;;;;;12.11;100.00;100626.31;5076594;28;20391;-51
2021/12/05 18:21:33;;;;;;;;;;;;;;;12.06;100.00;100629.63;5076679;28;19943;-50
2021/12/05 18:23:59;;;;;;;;;;;;;;;12.07;100.00;100630.44;5076573;28;20358;-53